Time;durP1;ratioP1;P1;durP2;ratioP2;P2;SDS_P1;SDS_P2;PMS_P1;PMS_P2;Temp;Humidity;BMP_temperature;BMP_pressure;BME280_temperature;BME280_humidity;BME280_pressure;Samples;Min_cycle;Max_cycle;Signal;HPM_P1;HPM_P2
2023/09/08 00:01:25;;;;;;;7.00;3.20;;;;;;;23.76;41.87;98789.59;5090897;28;20030;-45
2023/09/08 00:03:50;;;;;;;6.10;2.75;;;;;;;23.85;41.81;98785.25;5090594;28;20345;-45
2023/09/08 00:06:16;;;;;;;4.50;3.30;;;;;;;23.96;42.03;98787.81;5090473;28;20402;-45
2023/09/08 00:08:43;;;;;;;10.48;3.95;;;;;;;24.23;42.03;98781.84;5090809;28;20038;-45
2023/09/08 00:11:08;;;;;;;13.60;4.57;;;;;;;24.66;41.77;98788.00;5091760;28;20039;-45
2023/09/08 00:13:34;;;;;;;6.65;3.20;;;;;;;24.90;39.81;98785.22;5090814;28;20485;-45
2023/09/08 00:16:00;;;;;;;8.00;3.47;;;;;;;24.86;40.22;98778.06;5090224;28;20044;-45
2023/09/08 00:18:25;;;;;;;5.63;3.15;;;;;;;24.72;39.34;98775.31;5090498;28;20032;-45
2023/09/08 00:20:51;;;;;;;8.50;2.88;;;;;;;24.42;39.55;98771.94;5091604;28;20020;-45
2023/09/08 00:23:17;;;;;;;5.57;3.45;;;;;;;24.26;40.40;98776.69;5091779;28;20397;-45
2023/09/08 00:25:42;;;;;;;10.18;2.97;;;;;;;24.30;39.88;98774.25;5090636;28;20028;-45
2023/09/08 00:28:08;;;;;;;10.60;3.65;;;;;;;24.43;40.30;98781.59;5090378;28;20024;-45
2023/09/08 00:30:34;;;;;;;8.85;3.17;;;;;;;24.61;39.61;98779.22;5091655;28;20066;-45
2023/09/08 00:32:59;;;;;;;5.90;2.88;;;;;;;24.51;38.93;98777.50;5090308;28;20019;-45
2023/09/08 00:35:25;;;;;;;12.27;3.80;;;;;;;24.58;39.69;98780.59;5091838;28;20032;-45
2023/09/08 00:37:50;;;;;;;5.53;3.15;;;;;;;24.68;39.05;98769.72;5091652;28;20062;-45
2023/09/08 00:40:16;;;;;;;4.15;2.67;;;;;;;24.59;38.52;98770.66;5091847;28;20165;-46
2023/09/08 00:42:42;;;;;;;15.35;3.78;;;;;;;24.72;39.33;98777.97;5090245;28;20528;-46
2023/09/08 00:45:08;;;;;;;8.93;2.63;;;;;;;25.03;38.37;98780.19;5090220;28;20119;-45
2023/09/08 00:47:35;;;;;;;12.25;4.68;;;;;;;24.91;38.33;98784.13;5091649;28;20051;-45
2023/09/08 00:50:04;;;;;;;6.63;3.30;;;;;;;24.84;38.57;98785.59;5090168;28;20077;-45
2023/09/08 00:52:32;;;;;;;9.82;3.78;;;;;;;24.70;39.13;98786.31;5091456;28;20402;-45
2023/09/08 00:54:59;;;;;;;9.73;3.83;;;;;;;25.03;39.01;98789.06;5091462;28;20031;-45
2023/09/08 00:57:24;;;;;;;8.15;3.75;;;;;;;25.19;38.49;98789.59;5092377;28;20024;-45
2023/09/08 00:59:50;;;;;;;16.10;5.15;;;;;;;25.39;38.52;98788.47;5093925;28;20386;-45
2023/09/08 01:02:19;;;;;;;20.02;4.82;;;;;;;25.62;38.17;98783.25;5095166;28;20453;-45
2023/09/08 01:04:45;;;;;;;7.95;4.00;;;;;;;25.65;38.31;98785.34;5095407;28;20035;-45
2023/09/08 01:07:11;;;;;;;11.30;3.15;;;;;;;25.52;38.21;98789.59;5093952;28;20028;-45
2023/09/08 01:09:37;;;;;;;9.95;3.65;;;;;;;25.51;37.31;98786.13;5095228;28;20052;-46
2023/09/08 01:12:06;;;;;;;7.43;3.85;;;;;;;25.33;38.71;98781.59;5093974;28;20024;-45
2023/09/08 01:14:32;;;;;;;14.95;5.38;;;;;;;24.99;39.40;98788.06;5094696;28;20044;-45
2023/09/08 01:16:58;;;;;;;11.73;3.80;;;;;;;24.89;39.42;98780.13;5094915;28;20103;-45
2023/09/08 01:19:23;;;;;;;2.65;2.45;;;;;;;24.89;38.71;98785.50;5094874;28;20024;-45
2023/09/08 01:22:07;;;;;;;4.35;3.25;;;;;;;24.80;38.98;98787.28;5093468;28;20038;-45
2023/09/08 01:24:58;;;;;;;23.70;4.22;;;;;;;24.77;38.86;98787.84;5094824;28;20023;-45
2023/09/08 01:27:25;;;;;;;9.75;3.80;;;;;;;24.91;40.40;98780.63;5094614;28;20028;-45
2023/09/08 01:29:53;;;;;;;18.00;6.53;;;;;;;25.07;40.49;98782.00;5093271;28;20520;-45
2023/09/08 01:32:19;;;;;;;9.80;3.20;;;;;;;25.02;38.73;98779.41;5094591;28;20024;-45
2023/09/08 01:34:45;;;;;;;15.40;7.38;;;;;;;24.99;40.25;98787.22;5093256;28;20020;-45
2023/09/08 01:37:11;;;;;;;10.20;5.05;;;;;;;24.84;41.31;98791.75;5094545;28;20032;-45
2023/09/08 01:39:36;;;;;;;9.70;4.88;;;;;;;24.67;41.50;98789.59;5093401;28;20052;-45
2023/09/08 01:42:02;;;;;;;16.17;5.07;;;;;;;24.32;42.51;98786.28;5094376;28;20490;-45
2023/09/08 01:44:28;;;;;;;9.32;3.83;;;;;;;23.90;43.77;98785.19;5093130;28;20060;-45
2023/09/08 01:46:56;;;;;;;8.52;3.60;;;;;;;23.48;44.39;98786.66;5094284;28;20115;-45
2023/09/08 01:49:23;;;;;;;10.35;4.20;;;;;;;23.08;45.96;98788.63;5094337;28;20350;-45
2023/09/08 01:51:49;;;;;;;13.43;4.90;;;;;;;22.93;46.60;98794.06;5092882;28;20115;-45
2023/09/08 01:54:14;;;;;;;8.13;3.97;;;;;;;22.95;46.93;98791.91;5094196;28;20055;-45
2023/09/08 01:56:40;;;;;;;22.52;4.50;;;;;;;23.12;47.37;98789.66;5093089;28;20482;-45
2023/09/08 01:59:05;;;;;;;7.00;4.75;;;;;;;23.17;47.01;98788.81;5092818;28;20443;-45
2023/09/08 02:01:31;;;;;;;8.23;3.97;;;;;;;23.06;47.32;98787.28;5094289;28;20493;-45
2023/09/08 02:03:57;;;;;;;8.10;4.30;;;;;;;22.86;48.21;98791.69;5092724;28;20115;-45
2023/09/08 02:06:22;;;;;;;10.27;4.93;;;;;;;22.69;49.18;98794.75;5092520;28;20036;-45
2023/09/08 02:08:48;;;;;;;11.80;5.15;;;;;;;22.75;49.00;98798.19;5092224;28;20031;-45
2023/09/08 02:11:13;;;;;;;9.88;4.97;;;;;;;22.73;49.66;98793.09;5092584;28;20039;-45
2023/09/08 02:13:42;;;;;;;8.93;4.57;;;;;;;22.64;50.30;98788.66;5092823;28;20023;-45
2023/09/08 02:16:12;;;;;;;15.10;4.55;;;;;;;22.47;50.77;98797.00;5093582;28;20119;-45
2023/09/08 02:18:38;;;;;;;20.67;5.65;;;;;;;22.34;51.42;98799.22;5093808;28;20035;-45
2023/09/08 02:21:04;;;;;;;11.50;4.80;;;;;;;22.44;51.56;98803.72;5093722;28;20032;-45
2023/09/08 02:23:30;;;;;;;6.82;3.85;;;;;;;22.49;51.08;98798.31;5093857;28;20389;-45
2023/09/08 02:25:55;;;;;;;47.95;13.68;;;;;;;22.41;51.53;98798.91;5092214;28;20032;-45
2023/09/08 02:28:21;;;;;;;12.93;4.93;;;;;;;22.37;52.25;98799.75;5092275;28;20032;-45
2023/09/08 02:30:47;;;;;;;35.25;7.85;;;;;;;22.27;52.01;98793.34;5092241;28;20059;-45
2023/09/08 02:33:12;;;;;;;16.52;4.90;;;;;;;22.30;51.95;98797.38;5093757;28;20016;-45
2023/09/08 02:35:38;;;;;;;15.18;8.20;;;;;;;22.09;52.77;98802.78;5093435;28;20024;-45
2023/09/08 02:38:04;;;;;;;13.25;6.00;;;;;;;21.89;53.41;98802.81;5092099;28;20114;-45
2023/09/08 02:40:30;;;;;;;8.38;4.78;;;;;;;21.77;53.77;98802.31;5093313;28;20058;-45
2023/09/08 02:42:55;;;;;;;12.18;5.65;;;;;;;21.74;53.60;98806.34;5093315;28;20052;-45
2023/09/08 02:45:21;;;;;;;11.45;4.85;;;;;;;21.58;54.12;98818.13;5091894;28;20039;-45
2023/09/08 02:47:46;;;;;;;16.88;5.15;;;;;;;21.51;54.78;98811.19;5093112;28;20028;-45
2023/09/08 02:50:12;;;;;;;24.58;6.38;;;;;;;21.62;54.42;98808.50;5091837;28;20446;-45
2023/09/08 02:52:38;;;;;;;11.75;4.70;;;;;;;21.51;54.39;98808.53;5093095;28;20536;-45
2023/09/08 02:55:04;;;;;;;16.17;5.10;;;;;;;21.36;54.68;98811.16;5092981;28;20059;-45
2023/09/08 02:57:29;;;;;;;12.40;5.05;;;;;;;21.22;55.70;98816.22;5091807;28;20017;-45
2023/09/08 02:59:56;;;;;;;13.82;5.40;;;;;;;21.33;56.04;98817.84;5092961;28;20107;-45
2023/09/08 03:02:23;;;;;;;11.48;4.65;;;;;;;21.40;55.18;98816.78;5092869;28;20476;-45
2023/09/08 03:04:49;;;;;;;10.18;5.10;;;;;;;21.36;55.47;98813.84;5092831;28;20027;-45
2023/09/08 03:07:14;;;;;;;13.45;4.95;;;;;;;21.43;55.05;98826.94;5092699;28;20017;-45
2023/09/08 03:09:40;;;;;;;11.45;4.57;;;;;;;21.56;54.78;98829.06;5093005;28;20024;-45
2023/09/08 03:12:06;;;;;;;12.35;4.18;;;;;;;21.56;54.16;98822.94;5092716;28;20596;-45
2023/09/08 03:14:31;;;;;;;14.90;5.50;;;;;;;21.48;54.53;98824.28;5092348;28;20044;-45
2023/09/08 03:16:57;;;;;;;19.88;6.22;;;;;;;21.56;55.23;98820.25;5091364;28;20089;-45
2023/09/08 03:19:22;;;;;;;13.00;5.60;;;;;;;21.43;55.85;98817.06;5091063;28;20111;-45
2023/09/08 03:21:48;;;;;;;9.75;4.85;;;;;;;21.47;56.21;98815.47;5090903;28;20081;-45
2023/09/08 03:24:14;;;;;;;28.42;6.18;;;;;;;21.64;55.87;98809.81;5092540;28;20032;-45
2023/09/08 03:26:40;;;;;;;10.02;5.18;;;;;;;21.72;55.30;98819.16;5092354;28;20028;-45
2023/09/08 03:29:06;;;;;;;11.82;5.40;;;;;;;21.53;55.45;98816.25;5092389;28;20055;-45
2023/09/08 03:31:32;;;;;;;15.57;6.20;;;;;;;21.46;55.74;98821.88;5092349;28;20044;-45
2023/09/08 03:33:57;;;;;;;6.53;4.43;;;;;;;21.39;55.69;98815.97;5091013;28;20578;-45
2023/09/08 03:36:24;;;;;;;8.88;4.68;;;;;;;21.30;55.85;98820.25;5092246;28;20057;-45
2023/09/08 03:38:50;;;;;;;8.88;5.43;;;;;;;21.29;56.09;98824.78;5090935;28;20653;-45
2023/09/08 03:41:16;;;;;;;7.65;4.18;;;;;;;21.35;56.21;98818.38;5092228;28;20028;-45
2023/09/08 03:43:41;;;;;;;8.65;4.82;;;;;;;21.62;55.92;98825.31;5090822;28;20024;-45
2023/09/08 03:46:07;;;;;;;16.85;5.70;;;;;;;21.70;55.51;98815.97;5092108;28;20043;-45
2023/09/08 03:48:32;;;;;;;14.80;5.70;;;;;;;21.59;55.39;98814.38;5092129;28;20060;-45
2023/09/08 03:50:58;;;;;;;35.83;7.57;;;;;;;21.53;55.59;98810.91;5092336;28;20485;-45
2023/09/08 03:53:24;;;;;;;24.50;6.28;;;;;;;21.41;55.71;98813.03;5092070;28;20046;-45
2023/09/08 03:55:50;;;;;;;14.23;5.50;;;;;;;21.34;56.03;98813.31;5090675;28;20050;-44
2023/09/08 03:58:16;;;;;;;7.78;5.35;;;;;;;21.11;56.29;98817.31;5090655;28;20032;-45
2023/09/08 04:00:42;;;;;;;10.73;4.97;;;;;;;20.95;56.72;98813.84;5091944;28;20095;-44
2023/09/08 04:03:08;;;;;;;8.68;5.15;;;;;;;20.85;56.99;98835.94;5092012;28;20020;-45
2023/09/08 04:05:33;;;;;;;17.48;4.55;;;;;;;20.84;57.23;98837.00;5091845;28;20031;-45
2023/09/08 04:07:59;;;;;;;13.50;5.35;;;;;;;20.82;57.06;98841.00;5090830;28;20024;-45
2023/09/08 04:10:25;;;;;;;17.33;5.90;;;;;;;20.75;57.12;98830.59;5091784;28;20020;-45
2023/09/08 04:12:51;;;;;;;15.23;5.57;;;;;;;20.77;56.98;98835.69;5091815;28;20028;-45
2023/09/08 04:15:16;;;;;;;24.30;6.03;;;;;;;20.73;56.80;98833.53;5090327;28;20048;-45
2023/09/08 04:17:42;;;;;;;21.15;5.78;;;;;;;20.72;57.07;98834.56;5090809;28;20507;-45
2023/09/08 04:20:08;;;;;;;20.35;5.50;;;;;;;20.64;57.46;98827.09;5091826;28;20047;-45
2023/09/08 04:22:34;;;;;;;10.98;5.50;;;;;;;20.47;57.52;98827.28;5091780;28;20020;-45
2023/09/08 04:25:01;;;;;;;14.43;6.18;;;;;;;20.31;57.78;98829.09;5091785;28;20103;-45
2023/09/08 04:27:26;;;;;;;11.65;4.80;;;;;;;20.17;57.89;98827.16;5090618;28;20115;-45
2023/09/08 04:29:52;;;;;;;13.15;5.68;;;;;;;20.12;58.30;98830.59;5090418;28;20541;-45
2023/09/08 04:32:18;;;;;;;8.75;5.10;;;;;;;20.12;58.30;98831.41;5094170;28;20599;-45
2023/09/08 04:34:44;;;;;;;21.60;6.00;;;;;;;20.17;58.54;98825.28;5094732;28;20037;-45
2023/09/08 04:37:10;;;;;;;15.45;5.63;;;;;;;20.40;57.94;98831.25;5094396;28;20024;-45
2023/09/08 04:39:36;;;;;;;12.27;5.70;;;;;;;20.64;57.30;98834.28;5095627;28;20047;-45
2023/09/08 04:42:02;;;;;;;10.70;5.50;;;;;;;20.78;56.60;98837.25;5095562;28;20070;-45
2023/09/08 04:44:28;;;;;;;10.68;4.90;;;;;;;20.88;55.87;98840.75;5095545;28;20032;-45
2023/09/08 04:46:54;;;;;;;16.83;5.20;;;;;;;20.93;54.52;98840.75;5095350;28;20051;-45
2023/09/08 04:49:20;;;;;;;30.08;7.25;;;;;;;20.98;54.73;98839.97;5095687;28;20073;-45
2023/09/08 04:51:46;;;;;;;17.63;6.22;;;;;;;21.14;54.58;98841.56;5095362;28;20811;-45
2023/09/08 04:54:12;;;;;;;23.55;6.32;;;;;;;21.38;54.00;98838.41;5095387;28;20020;-45
2023/09/08 04:56:39;;;;;;;20.92;7.93;;;;;;;21.46;52.58;98845.91;5095309;28;20020;-45
2023/09/08 04:59:05;;;;;;;33.30;7.28;;;;;;;21.38;52.91;98845.63;5095621;28;20103;-45
2023/09/08 05:01:32;;;;;;;52.40;9.23;;;;;;;21.44;52.83;98847.25;5095191;28;20095;-45
2023/09/08 05:04:01;;;;;;;55.85;8.15;;;;;;;21.60;53.10;98843.50;5095114;28;20378;-45
2023/09/08 05:06:26;;;;;;;35.15;6.88;;;;;;;21.79;52.49;98845.59;5095289;28;20046;-45
2023/09/08 05:08:52;;;;;;;20.80;6.25;;;;;;;21.80;51.60;98845.34;5095155;28;20541;-45
2023/09/08 05:11:19;;;;;;;23.88;6.47;;;;;;;21.68;52.16;98853.63;5095020;28;20031;-45
2023/09/08 05:13:46;;;;;;;26.27;6.28;;;;;;;21.67;52.25;98849.38;5094955;28;20085;-45
2023/09/08 05:16:12;;;;;;;35.25;8.10;;;;;;;21.64;52.65;98849.91;5094776;28;20528;-45
2023/09/08 05:18:41;;;;;;;34.75;7.03;;;;;;;21.67;53.21;98854.72;5093568;28;20111;-45
2023/09/08 05:21:07;;;;;;;90.03;11.07;;;;;;;21.68;53.18;98858.97;5094851;28;20114;-45
2023/09/08 05:23:34;;;;;;;119.95;13.63;;;;;;;21.50;53.20;98854.97;5093438;28;20420;-45
2023/09/08 05:26:01;;;;;;;109.18;13.55;;;;;;;21.49;53.95;98855.22;5094715;28;20516;-45
2023/09/08 05:28:27;;;;;;;133.45;14.18;;;;;;;21.99;53.08;98858.91;5094638;28;20034;-45
2023/09/08 05:30:55;;;;;;;63.75;10.43;;;;;;;22.51;52.00;98859.56;5093636;28;20031;-45
2023/09/08 05:33:21;;;;;;;66.82;9.50;;;;;;;23.08;50.21;98860.91;5094607;28;20038;-45
2023/09/08 05:35:47;;;;;;;51.72;7.63;;;;;;;23.49;48.89;98849.06;5094600;28;20020;-45
2023/09/08 05:38:13;;;;;;;33.60;7.22;;;;;;;23.98;47.81;98858.03;5094562;28;20032;-45
2023/09/08 05:40:38;;;;;;;42.97;8.60;;;;;;;24.44;46.48;98854.81;5094474;28;20077;-45
2023/09/08 05:43:04;;;;;;;47.33;9.52;;;;;;;24.85;45.47;98852.44;5092393;28;20390;-45
2023/09/08 05:45:32;;;;;;;31.20;7.25;;;;;;;25.25;44.43;98862.88;5094413;28;20020;-46
2023/09/08 05:47:57;;;;;;;24.90;6.10;;;;;;;25.58;43.74;98855.63;5094537;28;20042;-45
2023/09/08 05:50:23;;;;;;;44.63;7.75;;;;;;;25.94;43.24;98862.25;5094189;28;20546;-45
2023/09/08 05:52:49;;;;;;;28.88;6.63;;;;;;;26.20;42.08;98860.69;5094266;28;20017;-45
2023/09/08 05:55:14;;;;;;;63.03;9.68;;;;;;;26.50;41.14;98861.16;5092880;28;20055;-45
2023/09/08 05:57:40;;;;;;;52.47;9.02;;;;;;;26.75;40.58;98857.16;5092828;28;20030;-45
2023/09/08 06:00:07;;;;;;;48.83;8.13;;;;;;;26.94;40.32;98858.91;5094099;28;20490;-45
2023/09/08 06:02:33;;;;;;;108.10;13.60;;;;;;;27.06;39.42;98868.06;5094046;28;20028;-45
2023/09/08 06:04:58;;;;;;;88.70;12.77;;;;;;;27.24;38.98;98877.06;5092763;28;20031;-45
2023/09/08 06:07:24;;;;;;;32.65;8.07;;;;;;;27.46;38.41;98870.09;5093934;28;20058;-45
2023/09/08 06:09:50;;;;;;;58.35;10.27;;;;;;;27.56;38.36;98874.44;5094170;28;20071;-45
2023/09/08 06:12:15;;;;;;;51.80;8.57;;;;;;;27.54;39.04;98880.13;5092528;28;20561;-45
2023/09/08 06:14:41;;;;;;;33.50;7.03;;;;;;;27.34;39.49;98886.03;5093646;28;20477;-45
2023/09/08 06:17:06;;;;;;;72.95;9.32;;;;;;;26.70;40.25;98887.69;5093739;28;20397;-45
2023/09/08 06:19:33;;;;;;;72.97;11.50;;;;;;;25.95;41.94;98896.94;5092457;28;20198;-45
2023/09/08 06:21:58;;;;;;;46.30;8.38;;;;;;;25.38;42.86;98890.88;5093937;28;20111;-45
2023/09/08 06:24:24;;;;;;;51.47;7.88;;;;;;;25.05;43.78;98899.66;5093621;28;20482;-45
2023/09/08 06:26:50;;;;;;;35.58;6.78;;;;;;;25.32;43.94;98898.22;5092212;28;20024;-45
2023/09/08 06:29:15;;;;;;;56.83;8.02;;;;;;;25.86;42.58;98899.47;5092309;28;20460;-45
2023/09/08 06:31:41;;;;;;;29.50;7.25;;;;;;;26.21;41.80;98896.47;5093437;28;20106;-45
2023/09/08 06:34:07;;;;;;;59.65;10.25;;;;;;;26.65;41.04;98897.78;5093463;28;20016;-45
2023/09/08 06:36:32;;;;;;;178.73;19.45;;;;;;;27.18;39.58;98889.03;5093358;28;20032;-45
2023/09/08 06:38:59;;;;;;;46.85;9.95;;;;;;;27.76;38.17;98887.41;5093314;28;20103;-45
2023/09/08 06:41:27;;;;;;;167.10;18.10;;;;;;;28.36;37.83;98885.31;5093290;28;20489;-45
2023/09/08 06:43:53;;;;;;;120.70;14.50;;;;;;;29.22;36.30;98881.19;5093282;28;20551;-45
2023/09/08 06:46:18;;;;;;;133.75;15.20;;;;;;;30.25;33.96;98889.34;5093047;28;20020;-45
2023/09/08 06:48:44;;;;;;;92.20;11.70;;;;;;;30.91;32.90;98880.72;5093182;28;20020;-46
2023/09/08 06:51:10;;;;;;;139.90;13.85;;;;;;;31.60;32.10;98879.31;5093060;28;20111;-45
2023/09/08 06:53:36;;;;;;;146.77;18.25;;;;;;;32.21;30.75;98894.09;5093071;28;20019;-45
2023/09/08 06:56:02;;;;;;;100.57;13.60;;;;;;;32.68;30.54;98881.97;5091939;28;20451;-45
2023/09/08 06:58:28;;;;;;;69.50;11.13;;;;;;;32.72;30.61;98888.31;5074766;28;20020;-46
2023/09/08 07:00:54;;;;;;;24.10;5.50;;;;;;;32.86;30.18;98893.38;5092952;28;20027;-46
2023/09/08 07:03:23;;;;;;;51.25;8.73;;;;;;;33.01;30.08;98884.50;5093104;28;20453;-45
2023/09/08 07:05:49;;;;;;;60.45;9.05;;;;;;;33.25;29.66;98885.59;5091474;28;20028;-46
2023/09/08 07:08:15;;;;;;;118.63;12.45;;;;;;;33.75;28.44;98886.94;5092754;28;20027;-46
2023/09/08 07:10:41;;;;;;;75.85;11.45;;;;;;;33.98;28.07;98885.16;5092734;28;20024;-46
2023/09/08 07:13:06;;;;;;;184.05;19.38;;;;;;;33.97;28.07;98890.97;5091395;28;20491;-46
2023/09/08 07:15:32;;;;;;;244.57;25.50;;;;;;;34.11;28.47;98893.22;5092452;28;20443;-46
2023/09/08 07:17:58;;;;;;;119.10;13.45;;;;;;;34.72;27.64;98889.22;5092678;28;20046;-46
2023/09/08 07:20:23;;;;;;;164.00;17.80;;;;;;;35.32;26.73;98886.19;5092611;28;20016;-46
2023/09/08 07:22:49;;;;;;;124.13;14.82;;;;;;;35.41;26.85;98886.72;5091240;28;20028;-46
2023/09/08 07:25:15;;;;;;;192.93;20.05;;;;;;;35.65;26.42;98887.53;5092513;28;20099;-46
2023/09/08 07:27:40;;;;;;;56.67;8.70;;;;;;;35.94;25.47;98881.44;5092379;28;20073;-46
2023/09/08 07:30:07;;;;;;;68.40;10.45;;;;;;;35.11;26.54;98894.69;5074188;28;20494;-46
2023/09/08 07:32:32;;;;;;;96.43;11.80;;;;;;;34.97;26.91;98901.47;5092414;28;20024;-46
2023/09/08 07:34:58;;;;;;;65.82;10.85;;;;;;;35.49;26.59;98896.63;5091067;28;20024;-46
2023/09/08 07:37:24;;;;;;;52.70;9.27;;;;;;;35.87;26.11;98900.44;5092281;28;20103;-46
2023/09/08 07:39:51;;;;;;;52.50;8.60;;;;;;;36.11;26.08;98898.47;5090982;28;20031;-46
2023/09/08 07:42:17;;;;;;;41.25;8.48;;;;;;;36.36;25.39;98898.88;5091252;28;20043;-46
2023/09/08 07:44:43;;;;;;;53.83;7.40;;;;;;;36.54;25.48;98896.41;5092160;28;20111;-46
2023/09/08 07:47:08;;;;;;;62.22;9.35;;;;;;;36.99;25.19;98897.41;5092360;28;20100;-46
2023/09/08 07:49:34;;;;;;;46.22;7.57;;;;;;;37.44;24.46;98900.28;5092157;28;20016;-46
2023/09/08 07:52:00;;;;;;;53.17;8.05;;;;;;;37.62;24.20;98895.03;5090865;28;20020;-46
2023/09/08 07:54:26;;;;;;;54.67;8.05;;;;;;;38.01;23.79;98891.81;5092013;28;20080;-46
2023/09/08 07:56:52;;;;;;;127.38;12.25;;;;;;;38.19;23.77;98897.47;5092057;28;20032;-46
2023/09/08 07:59:17;;;;;;;79.65;10.35;;;;;;;38.74;23.29;98891.94;5090639;28;20032;-46
2023/09/08 08:01:43;;;;;;;104.93;12.48;;;;;;;38.90;22.65;98897.13;5091014;28;20937;-46
2023/09/08 08:04:09;;;;;;;44.85;8.15;;;;;;;38.53;23.21;98892.63;5090936;28;20049;-46
2023/09/08 08:06:35;;;;;;;64.88;8.40;;;;;;;38.43;23.57;98891.34;5090159;28;20513;-46
2023/09/08 08:09:01;;;;;;;93.00;11.60;;;;;;;38.33;24.02;98879.13;5091901;28;20873;-46
2023/09/08 08:11:27;;;;;;;51.40;7.43;;;;;;;38.49;23.55;98883.53;5090616;28;20035;-46
2023/09/08 08:13:53;;;;;;;38.08;5.88;;;;;;;38.63;23.37;98891.09;5091566;28;20055;-47
2023/09/08 08:16:21;;;;;;;39.33;5.97;;;;;;;38.87;23.11;98892.38;5091570;28;20109;-46
2023/09/08 08:18:47;;;;;;;32.92;5.13;;;;;;;39.05;22.65;98890.53;5091736;28;20572;-47
2023/09/08 08:21:13;;;;;;;22.77;5.25;;;;;;;39.15;22.62;98894.47;5090434;28;20109;-46
2023/09/08 08:23:39;;;;;;;40.83;6.47;;;;;;;39.42;22.68;98886.75;5092066;28;20065;-47
2023/09/08 08:26:04;;;;;;;70.70;8.60;;;;;;;39.66;22.53;98889.88;5091678;28;20497;-46
2023/09/08 08:28:30;;;;;;;69.60;14.07;;;;;;;39.98;21.66;98884.41;5091733;28;20408;-47
2023/09/08 08:30:56;;;;;;;67.72;8.80;;;;;;;40.18;21.62;98892.25;5090307;28;20119;-45
2023/09/08 08:33:22;;;;;;;20.95;7.03;;;;;;;40.63;21.29;98889.81;5091593;28;20099;-46
2023/09/08 08:35:52;;;;;;;30.70;6.72;;;;;;;40.94;21.13;98890.91;5091614;28;20110;-47
2023/09/08 08:38:18;;;;;;;22.58;5.30;;;;;;;41.19;20.57;98892.78;5091888;28;20028;-47
2023/09/08 08:40:44;;;;;;;97.28;11.95;;;;;;;41.34;20.96;98885.22;5091799;28;20390;-47
2023/09/08 08:43:10;;;;;;;79.80;9.98;;;;;;;41.28;20.73;98885.63;5091531;28;20035;-47
2023/09/08 08:45:38;;;;;;;92.70;12.25;;;;;;;41.20;20.38;98884.13;5091876;28;20024;-47
2023/09/08 08:48:05;;;;;;;18.58;5.35;;;;;;;41.15;20.17;98884.50;5091358;28;20115;-47
2023/09/08 08:50:32;;;;;;;36.92;6.22;;;;;;;40.93;19.94;98881.88;5091671;28;20410;-47
2023/09/08 08:52:58;;;;;;;25.30;4.85;;;;;;;40.89;20.25;98880.31;5091521;28;20382;-47
2023/09/08 08:55:25;;;;;;;59.45;9.73;;;;;;;40.85;20.59;98879.53;5091492;28;20088;-47
2023/09/08 08:57:51;;;;;;;39.13;6.43;;;;;;;40.85;20.33;98882.28;5090109;28;20393;-47
2023/09/08 09:00:18;;;;;;;38.85;7.20;;;;;;;40.94;20.13;98877.16;5091383;28;20035;-46
2023/09/08 09:02:47;;;;;;;23.25;4.70;;;;;;;41.28;19.69;98882.09;5091418;28;20562;-47
2023/09/08 09:05:13;;;;;;;40.97;6.30;;;;;;;41.65;18.61;98875.94;5091582;28;20074;-47
2023/09/08 09:07:42;;;;;;;16.25;4.18;;;;;;;41.89;17.65;98863.16;5089915;28;20020;-47
2023/09/08 09:10:09;;;;;;;7.60;3.03;;;;;;;41.99;16.67;98866.22;5091212;28;20031;-47
2023/09/08 09:12:38;;;;;;;18.63;3.92;;;;;;;42.07;16.93;98865.00;5091220;28;20023;-47
2023/09/08 09:15:04;;;;;;;34.22;6.05;;;;;;;42.03;18.34;98867.78;5090857;28;20045;-47
2023/09/08 09:17:34;;;;;;;44.55;8.60;;;;;;;42.03;17.31;98864.25;5091500;28;20034;-47
2023/09/08 09:20:20;;;;;;;12.32;3.03;;;;;;;41.78;16.53;98868.00;5094408;28;20023;-47
2023/09/08 09:22:48;;;;;;;70.28;9.07;;;;;;;41.70;16.48;98861.75;5094875;28;20024;-47
2023/09/08 09:25:25;;;;;;;29.40;4.93;;;;;;;41.84;15.86;98868.34;5095032;28;20024;-47
2023/09/08 09:27:58;;;;;;;39.10;4.65;;;;;;;41.95;16.12;98862.72;5094634;28;20113;-47
2023/09/08 09:30:25;;;;;;;9.98;2.88;;;;;;;42.37;15.13;98860.75;5093474;28;20150;-47
2023/09/08 09:33:02;;;;;;;42.08;6.28;;;;;;;42.86;15.10;98861.38;5093365;28;20032;-47
2023/09/08 09:35:41;;;;;;;24.67;3.67;;;;;;;43.38;15.48;98868.56;5093254;28;20496;-47
2023/09/08 09:38:08;;;;;;;7.25;2.20;;;;;;;43.16;13.99;98854.25;5094557;28;20031;-47
2023/09/08 09:40:33;;;;;;;41.95;6.40;;;;;;;43.08;15.34;98857.16;5094584;28;20489;-47
2023/09/08 09:42:59;;;;;;;10.48;2.30;;;;;;;42.82;14.70;98861.41;5094451;28;20035;-47
2023/09/08 09:45:26;;;;;;;9.88;2.90;;;;;;;42.42;15.21;98866.59;5094699;28;20106;-47
2023/09/08 09:47:52;;;;;;;13.57;2.53;;;;;;;42.29;15.25;98858.06;5094362;28;20519;-47
2023/09/08 09:50:30;;;;;;;7.82;2.78;;;;;;;42.40;14.89;98859.91;5092994;28;20363;-47
2023/09/08 09:53:01;;;;;;;8.50;2.38;;;;;;;42.06;15.57;98858.69;5094215;28;20039;-46
2023/09/08 09:55:28;;;;;;;10.77;3.60;;;;;;;41.96;15.63;98856.00;5094238;28;20055;-47
2023/09/08 09:58:03;;;;;;;17.50;3.55;;;;;;;42.35;16.03;98857.63;5076191;28;20051;-47
2023/09/08 10:00:31;;;;;;;8.88;2.47;;;;;;;42.63;15.18;98860.06;5094109;28;20493;-47
2023/09/08 10:02:58;;;;;;;17.05;3.20;;;;;;;42.66;14.85;98852.94;5094074;28;20024;-47
2023/09/08 10:05:25;;;;;;;27.30;4.70;;;;;;;42.73;15.13;98854.84;5094079;28;20454;-47
2023/09/08 10:07:51;;;;;;;20.98;4.05;;;;;;;43.16;15.11;98848.75;5093899;28;20579;-47
2023/09/08 10:10:17;;;;;;;22.63;3.35;;;;;;;43.65;14.74;98854.72;5093891;28;20044;-47
2023/09/08 10:12:45;;;;;;;13.77;2.75;;;;;;;43.79;14.58;98848.19;5093950;28;20401;-47
2023/09/08 10:15:13;;;;;;;10.57;2.65;;;;;;;43.37;14.28;98847.69;5093572;28;20048;-47
2023/09/08 10:17:42;;;;;;;9.00;2.55;;;;;;;42.45;14.30;98834.66;5093694;28;20027;-47
2023/09/08 10:20:11;;;;;;;8.07;2.67;;;;;;;41.29;15.46;98848.66;5093675;28;20528;-47
2023/09/08 10:22:45;;;;;;;7.28;2.45;;;;;;;41.03;16.30;98838.97;5093615;28;20024;-46
2023/09/08 10:25:14;;;;;;;8.18;2.33;;;;;;;41.07;15.90;98847.97;5093569;28;20052;-47
2023/09/08 10:27:41;;;;;;;5.65;2.80;;;;;;;40.93;16.70;98848.03;5093835;28;20394;-47
2023/09/08 10:30:07;;;;;;;14.32;2.72;;;;;;;40.97;16.36;98843.31;5093525;28;20599;-47
2023/09/08 10:32:35;;;;;;;4.03;2.05;;;;;;;41.31;15.97;98834.47;5093531;28;20051;-46
2023/09/08 10:35:06;;;;;;;28.08;4.47;;;;;;;41.60;16.39;98834.28;5093416;28;20028;-47
2023/09/08 10:37:32;;;;;;;11.63;2.40;;;;;;;42.19;15.45;98834.13;5092136;28;20111;-47
2023/09/08 10:40:24;;;;;;;9.00;2.80;;;;;;;42.58;15.19;98834.91;5092065;28;20119;-46
2023/09/08 10:43:06;;;;;;;6.82;2.63;;;;;;;42.52;15.14;98831.03;5093620;28;20129;-47
2023/09/08 10:45:32;;;;;;;4.30;1.83;;;;;;;42.17;15.08;98830.22;5093328;28;20060;-46
2023/09/08 10:47:58;;;;;;;7.03;2.90;;;;;;;42.36;14.83;98826.88;5093091;28;20555;-47
2023/09/08 10:50:32;;;;;;;8.07;2.50;;;;;;;42.94;15.25;98820.66;5091875;28;20031;-47
2023/09/08 10:53:27;;;;;;;11.38;2.65;;;;;;;42.86;15.07;98814.44;5093403;28;20035;-47
2023/09/08 10:55:53;;;;;;;9.98;2.40;;;;;;;42.48;15.10;98811.75;5079697;28;20079;-47
2023/09/08 10:58:38;;;;;;;9.50;2.60;;;;;;;42.02;15.26;98813.06;5093054;28;20027;-47
2023/09/08 11:01:04;;;;;;;6.97;3.97;;;;;;;41.97;15.34;98818.97;5093176;28;20420;-47
2023/09/08 11:03:44;;;;;;;4.78;2.40;;;;;;;42.09;15.68;98805.47;5092927;28;20016;-47
2023/09/08 11:06:10;;;;;;;4.28;2.15;;;;;;;42.05;15.60;98807.47;5092744;28;20035;-47
2023/09/08 11:08:45;;;;;;;10.45;3.40;;;;;;;42.04;15.86;98811.44;5092878;28;20020;-47
2023/09/08 11:11:12;;;;;;;4.88;2.42;;;;;;;42.09;15.85;98812.97;5092761;28;20493;-47
2023/09/08 11:13:41;;;;;;;8.25;2.92;;;;;;;42.23;15.53;98804.53;5091410;28;20028;-47
2023/09/08 11:16:07;;;;;;;6.25;2.35;;;;;;;42.58;15.25;98810.84;5092345;28;20036;-47
2023/09/08 11:18:34;;;;;;;13.60;3.33;;;;;;;42.95;15.21;98811.97;5092965;28;20409;-46
2023/09/08 11:21:04;;;;;;;5.32;2.42;;;;;;;42.91;14.73;98802.94;5092801;28;20077;-46
2023/09/08 11:23:31;;;;;;;9.55;2.38;;;;;;;43.03;15.05;98799.59;5092644;28;20023;-47
2023/09/08 11:25:56;;;;;;;5.05;2.10;;;;;;;43.06;15.15;98796.00;5092437;28;20514;-47